Ana Sayfa
METAR-TAF:

METAR-TAF

Havaalanları :

Northeast Philadelphia Airport

Philadelphia, Pensilvanya, Amerika Birleşik Devletleri

Enlem: 40-04-44N, Boylam: 075-00-49W, yükseklik: 36 m

Güncel hava durumu gözlemi

Rapor saat 04:54 UTC de 26 dakika önce yapıldı.
Rüzgar kuzey/kuzeydoğudan 9 kt
Sıcaklık -7°C
Nem 38%
Basınç 1033 hPa
Görüş mesafesi: 16.1 km
Açık gökyüzü

METAR: KPNE 220454Z 03009KT 10SM CLR M07/M19 A3051 RMK AO2 SLP335 T10721194 410331100

Saat: 00:20 (05:20 UTC)

Tahmin

Rapor saat 23:20 UTC de 6 saat ve 0 dakika önce yapıldı.
Ayın 22'si saat 00 UTC'den ayın 22'si saat 24 UTC'ye kadar geçerli Tahmin
Rüzgar kuzey/kuzeydoğudan 10 kt
Görüş mesafesi: 10 km
20000 ft yükseklikte parçalı çok bulutlu
Ayın 22'si saat 2000 UTC'den
Rüzgar değişken yönden 4 kt
Görüş mesafesi: 10 km
15000 ft yükseklikte az bulutlu

TAF: KPNE 212320Z 2200/2224 03010KT P6SM BKN200 FM222000 VRB04KT P6SM FEW150

4.000'den fazla havaalanı için hava durumu gözlemleri ve tahminleri (METAR ve TAF raporları).

Kullanılabilir istasyonlar harita üzerinde sarı ve kırmızı noktalarla gösterilir.

İstasyonun adını görmek için fareyi noktanın üzerinde gezdirin.

Sonrasında hava gözlem ve tahminlerini görmek için tıklayın.

Haritayı değiştirmek için: yaklaştırmak için siyah artı işaretli yeşil düğmeye ve uzaklaştırmak için de eksi işaretli düğmeye hızla tıklayın; bitişik haritalar için yeşil okları kullanın.


METAR-TAF: